Etusivu
METAR-TAF:

METAR-TAF

Lentoasemat :

Winnemucca Municipal Airport

Winnemucca, Nevada, Yhdysvallat

Leveyspiiri: 40-54-07N, Pituuspiiri: 117-48-26W, korkeus merenpinnasta: 1311 m

Tämänhetkinen sää

Tämä raportti tehtiin 24 minuuttia sitten, kello 01.56 UTC
Tuuli 7 kn pohjoisesta
Lämpötila 16°C
Kosteus 17%
Ilmanpaine 1020 hPa
Näkyvyys: 16.1 km
selkeää

METAR: KWMC 090156Z AUTO 35007KT 10SM CLR 16/M09 A3013 RMK AO2 SLP188 T01611094

Aika: 19:20 (02:20 UTC)

Sääennuste

Tämä raportti tehtiin 3 tuntia ja 0 minuuttia sitten, kello 23.20 UTC
Ennuste voimassa 09. päivästä klo 00 UTC - 09. päivään klo 24 UTC
Tuuli 7 kn pohjoisen/luoteesta
Näkyvyys: 10 km
Hajanaisia pilviä 18000 ft:n korkeudessa
From 09. päivästä klo 1800 UTC
Tuuli 10 kn pohjoisen/luoteesta puuskistuen 18 kn:hen
Näkyvyys: 10 km
Hajanaisia pilviä 10000 ft:n korkeudessa
Hajonneita pilviä 15000 ft:n korkeudessa

TAF: KWMC 082320Z 0900/0924 34007KT P6SM SCT180 FM091800 33010G18KT P6SM SCT100 BKN150

Säähavainnot ja -ennusteet yli 4000 lentoasemalta (METAR- ja TAF-raportit).

Käytössä olevat sääasemat on merkitty karttaan keltaisilla ja punaisilla pisteillä.

Aseta hiiri pisteen päälle nähdäksesi sääaseman nimen.

Klikkaa sitten nähdäksesi säähavainnot ja -ennusteet.

Kartan vaihtaminen: klikkaa mustalla rastilla varustettuja vihreitä pisteitä, niin voit zoomata sisään; viivalla varustettua vihreää pistettä, niin voit zoomata ulos tai vihreitä nuolia, niin pääset viereisille kartoille.


METAR-TAF: